createdAt,value
2022-12-15T00:00:01.910Z,2.15
2022-12-15T00:02:51.585Z,2.12
2022-12-15T00:05:37.383Z,1.98
2022-12-15T00:08:26.719Z,1.89
2022-12-15T00:11:12.388Z,1.79
2022-12-15T00:13:57.901Z,1.72
2022-12-15T00:16:43.977Z,1.66
2022-12-15T00:19:30.751Z,1.64
2022-12-15T00:22:16.335Z,1.59
2022-12-15T00:25:01.809Z,1.63
2022-12-15T00:27:47.992Z,1.48
2022-12-15T00:30:33.493Z,1.43
2022-12-15T00:33:19.960Z,1.37
2022-12-15T00:36:06.721Z,1.34
2022-12-15T00:38:44.380Z,1.28
2022-12-15T00:41:13.454Z,1.30
2022-12-15T00:43:41.181Z,1.25
2022-12-15T00:46:28.365Z,1.27
2022-12-15T00:48:56.542Z,1.21
2022-12-15T00:51:44.111Z,1.20
2022-12-15T00:54:29.527Z,1.23
2022-12-15T00:57:15.179Z,1.12
2022-12-15T01:00:00.691Z,1.04
2022-12-15T01:02:46.711Z,1.05
2022-12-15T01:05:32.452Z,1.01
2022-12-15T01:08:19.301Z,1.04
2022-12-15T01:11:04.970Z,1.01
2022-12-15T01:13:50.565Z,1.08
2022-12-15T01:16:36.393Z,1.09
2022-12-15T01:19:22.110Z,1.17
2022-12-15T01:21:49.873Z,1.21
2022-12-15T01:24:18.984Z,1.20
2022-12-15T01:26:46.873Z,1.18
2022-12-15T01:29:14.543Z,1.17
2022-12-15T01:31:43.711Z,1.17
2022-12-15T01:34:11.413Z,1.23
2022-12-15T01:36:39.055Z,1.24
2022-12-15T01:39:07.414Z,1.23
2022-12-15T01:41:35.417Z,1.22
2022-12-15T01:44:17.326Z,1.23
2022-12-15T01:46:45.380Z,1.27
2022-12-15T01:49:16.511Z,1.23
2022-12-15T01:51:48.044Z,1.28
2022-12-15T01:54:20.428Z,1.29
2022-12-15T01:56:53.662Z,1.21
2022-12-15T01:59:27.693Z,1.13
2022-12-15T02:01:55.396Z,1.15
2022-12-15T02:04:25.172Z,1.15
2022-12-15T02:06:53.080Z,1.12
2022-12-15T02:09:24.059Z,1.08
2022-12-15T02:12:03.148Z,1.01
2022-12-15T02:14:51.719Z,1.00
2022-12-15T02:17:32.591Z,1.00
2022-12-15T02:20:41.137Z,1.00
2022-12-15T02:23:33.814Z,0.97
2022-12-15T02:26:18.713Z,0.89
2022-12-15T02:28:58.605Z,0.93
2022-12-15T02:31:49.949Z,0.93
2022-12-15T02:34:26.621Z,0.95
2022-12-15T02:36:58.634Z,0.97
2022-12-15T02:39:27.576Z,0.95
2022-12-15T02:41:55.365Z,1.00
2022-12-15T02:44:27.647Z,0.95
2022-12-15T02:47:18.873Z,0.81
2022-12-15T02:50:00.701Z,0.88
2022-12-15T02:52:42.087Z,0.87
2022-12-15T02:55:17.415Z,0.91
2022-12-15T02:57:54.327Z,0.90
2022-12-15T03:00:22.693Z,0.85
2022-12-15T03:02:54.282Z,0.89
2022-12-15T03:05:24.036Z,0.92
2022-12-15T03:07:52.797Z,0.96
2022-12-15T03:10:23.377Z,0.96
2022-12-15T03:12:51.559Z,0.98
2022-12-15T03:15:20.137Z,0.98
2022-12-15T03:17:48.288Z,1.00
2022-12-15T03:20:17.471Z,1.04
2022-12-15T03:22:45.357Z,1.06
2022-12-15T03:25:13.750Z,1.06
2022-12-15T03:27:41.402Z,1.05
2022-12-15T03:30:10.386Z,1.06
2022-12-15T03:32:38.012Z,1.09
2022-12-15T03:35:06.832Z,1.08
2022-12-15T03:37:35.831Z,1.03
2022-12-15T03:40:03.588Z,1.01
2022-12-15T03:42:49.866Z,1.02
2022-12-15T03:45:19.305Z,1.02
2022-12-15T03:47:47.445Z,1.10
2022-12-15T03:50:18.173Z,1.05
2022-12-15T03:52:51.364Z,1.04
2022-12-15T03:55:20.170Z,0.96
2022-12-15T03:57:48.032Z,0.90
2022-12-15T04:00:18.489Z,0.85
2022-12-15T04:02:46.911Z,0.84
2022-12-15T04:05:20.489Z,0.83
2022-12-15T04:07:49.494Z,0.76
2022-12-15T04:10:17.154Z,0.71
2022-12-15T04:12:44.820Z,0.66
2022-12-15T04:15:12.758Z,0.61
2022-12-15T04:17:40.467Z,0.51
2022-12-15T04:20:12.375Z,0.40
2022-12-15T04:22:42.206Z,0.38
2022-12-15T04:25:32.396Z,0.38
2022-12-15T04:28:18.151Z,0.36
2022-12-15T04:31:08.145Z,0.36
2022-12-15T04:33:54.061Z,0.33
2022-12-15T04:36:40.284Z,0.35
2022-12-15T04:39:25.523Z,0.37
2022-12-15T04:42:15.907Z,0.36
2022-12-15T04:45:01.705Z,0.41
2022-12-15T04:47:47.684Z,0.40
2022-12-15T04:50:33.122Z,0.43
2022-12-15T04:53:26.676Z,0.50
2022-12-15T04:56:17.999Z,0.46
2022-12-15T04:59:05.978Z,0.41
2022-12-15T05:01:52.314Z,0.45
2022-12-15T05:04:38.330Z,0.46
2022-12-15T05:07:23.793Z,0.50
2022-12-15T05:10:14.736Z,0.50
2022-12-15T05:13:00.326Z,0.53
2022-12-15T05:15:48.372Z,0.54
2022-12-15T05:18:33.679Z,0.61
2022-12-15T05:21:19.999Z,0.56
2022-12-15T05:24:06.291Z,0.56
2022-12-15T05:26:53.191Z,0.56
2022-12-15T05:29:38.910Z,0.56
2022-12-15T05:32:08.803Z,0.61
2022-12-15T05:34:37.396Z,0.61
2022-12-15T05:37:06.965Z,0.65
2022-12-15T05:39:34.717Z,0.67
2022-12-15T05:42:03.073Z,0.67
2022-12-15T05:44:30.740Z,0.67
2022-12-15T05:46:59.089Z,0.67
2022-12-15T05:49:28.104Z,0.67
2022-12-15T05:51:57.200Z,0.63
2022-12-15T05:54:24.947Z,0.63
2022-12-15T05:56:53.185Z,0.63
2022-12-15T05:59:21.362Z,0.61
2022-12-15T06:01:49.616Z,0.58
2022-12-15T06:04:17.355Z,0.58
2022-12-15T06:06:47.018Z,0.57
2022-12-15T06:09:14.755Z,0.54
2022-12-15T06:11:42.761Z,0.47
2022-12-15T06:14:11.026Z,0.45
2022-12-15T06:16:50.497Z,0.36
2022-12-15T06:19:19.303Z,0.37
2022-12-15T06:21:49.285Z,0.32
2022-12-15T06:24:16.964Z,0.30
2022-12-15T06:26:45.552Z,0.16
2022-12-15T06:29:14.343Z,0.20
2022-12-15T06:31:44.010Z,0.21
2022-12-15T06:34:16.192Z,0.21
2022-12-15T06:36:44.669Z,0.08
2022-12-15T06:39:15.580Z,0.11
2022-12-15T06:41:44.654Z,0.09
2022-12-15T06:44:15.453Z,0.07
2022-12-15T06:46:44.685Z,-0.01
2022-12-15T06:49:12.929Z,-0.04
2022-12-15T06:51:41.711Z,-0.01
2022-12-15T06:54:11.088Z,-0.06
2022-12-15T06:56:41.100Z,-0.09
2022-12-15T06:59:09.441Z,-0.08
2022-12-15T07:01:39.040Z,-0.10
2022-12-15T07:04:06.929Z,-0.08
2022-12-15T07:06:37.800Z,0.00
2022-12-15T07:09:08.184Z,0.01
2022-12-15T07:11:36.713Z,0.00
2022-12-15T07:14:05.884Z,0.04
2022-12-15T07:16:34.534Z,0.05
2022-12-15T07:19:02.429Z,0.16
2022-12-15T07:21:31.063Z,0.15
2022-12-15T07:23:59.644Z,0.10
2022-12-15T07:26:28.467Z,0.14
2022-12-15T07:28:56.339Z,0.11
2022-12-15T07:31:25.585Z,0.10
2022-12-15T07:33:54.614Z,0.11
2022-12-15T07:36:22.643Z,0.16
2022-12-15T07:38:51.421Z,0.19
2022-12-15T07:41:20.275Z,0.20
2022-12-15T07:43:48.409Z,0.26
2022-12-15T07:46:16.573Z,0.36
2022-12-15T07:48:50.686Z,0.40
2022-12-15T07:51:21.023Z,0.47
2022-12-15T07:53:51.161Z,0.48
2022-12-15T07:56:20.221Z,0.55
2022-12-15T07:58:48.235Z,0.49
2022-12-15T08:01:16.771Z,0.55
2022-12-15T08:03:46.123Z,0.56
2022-12-15T08:06:15.526Z,0.52
2022-12-15T08:08:50.314Z,0.57
2022-12-15T08:11:20.834Z,0.59
2022-12-15T08:14:06.991Z,0.69
2022-12-15T08:16:37.323Z,0.79
2022-12-15T08:19:07.222Z,0.81
2022-12-15T08:21:35.053Z,0.86
2022-12-15T08:24:02.966Z,0.91
2022-12-15T08:26:31.517Z,0.91
2022-12-15T08:29:31.958Z,0.92
2022-12-15T08:31:52.257Z,0.93
2022-12-15T08:34:22.223Z,0.90
2022-12-15T08:36:50.137Z,0.89
2022-12-15T08:39:18.494Z,0.97
2022-12-15T08:41:46.179Z,1.01
2022-12-15T08:44:16.667Z,1.06
2022-12-15T08:46:44.301Z,1.09
2022-12-15T08:49:15.361Z,1.09
2022-12-15T08:51:50.141Z,1.17
2022-12-15T08:54:19.198Z,1.22
2022-12-15T08:56:46.881Z,1.28
2022-12-15T08:59:15.318Z,1.36
2022-12-15T09:01:43.408Z,1.42
2022-12-15T09:04:11.967Z,1.52
2022-12-15T09:06:39.862Z,1.56
2022-12-15T09:09:11.990Z,1.56
2022-12-15T09:11:39.622Z,1.57
2022-12-15T09:14:08.095Z,1.56
2022-12-15T09:16:35.939Z,1.59
2022-12-15T09:19:04.361Z,1.40
2022-12-15T09:21:32.242Z,1.47
2022-12-15T09:24:02.618Z,1.51
2022-12-15T09:26:33.602Z,1.55
2022-12-15T09:29:02.766Z,1.56
2022-12-15T09:31:32.521Z,1.58
2022-12-15T09:34:02.009Z,1.62
2022-12-15T09:36:32.351Z,1.65
2022-12-15T09:39:02.114Z,1.69
2022-12-15T09:41:33.388Z,1.74
2022-12-15T09:44:03.958Z,1.80
2022-12-15T09:46:50.251Z,1.98
2022-12-15T09:49:31.902Z,2.06
2022-12-15T09:52:10.357Z,2.15
2022-12-15T09:54:41.630Z,2.14
2022-12-15T09:57:19.200Z,2.18
2022-12-15T10:00:03.593Z,2.26
2022-12-15T10:03:01.017Z,2.28
2022-12-15T10:06:06.935Z,2.31
2022-12-15T10:08:31.961Z,2.30
2022-12-15T10:11:02.248Z,2.27
2022-12-15T10:13:39.780Z,2.26
2022-12-15T10:16:19.670Z,2.25
2022-12-15T10:19:01.204Z,2.29
2022-12-15T10:21:31.815Z,2.24
2022-12-15T10:24:14.247Z,2.21
2022-12-15T10:26:43.613Z,2.14
2022-12-15T10:29:24.863Z,2.11
2022-12-15T10:31:58.006Z,2.10
2022-12-15T10:34:29.336Z,2.19
2022-12-15T10:36:58.404Z,2.21
2022-12-15T10:39:39.219Z,2.31
2022-12-15T10:42:20.878Z,2.34
2022-12-15T10:44:52.231Z,2.46
2022-12-15T10:47:24.128Z,2.60
2022-12-15T10:49:53.221Z,2.74
2022-12-15T10:52:27.317Z,2.71
2022-12-15T10:54:57.118Z,2.91
2022-12-15T10:57:41.137Z,2.98
2022-12-15T11:00:29.612Z,2.83
2022-12-15T11:02:58.436Z,2.89
2022-12-15T11:05:27.840Z,2.82
2022-12-15T11:07:57.659Z,2.87
2022-12-15T11:10:27.868Z,2.93
2022-12-15T11:12:59.600Z,2.93
2022-12-15T11:15:47.179Z,2.87
2022-12-15T11:18:36.637Z,3.03
2022-12-15T11:21:08.695Z,2.93
2022-12-15T11:23:51.162Z,2.83
2022-12-15T11:26:31.887Z,2.73
2022-12-15T11:29:02.558Z,2.72
2022-12-15T11:31:38.239Z,2.75
2022-12-15T11:34:13.410Z,2.79
2022-12-15T11:36:55.106Z,2.79
2022-12-15T11:39:34.841Z,2.80
2022-12-15T11:42:11.138Z,2.84
2022-12-15T11:44:49.039Z,2.92
2022-12-15T11:47:27.682Z,2.88
2022-12-15T11:50:10.204Z,2.92
2022-12-15T11:52:52.471Z,3.02
2022-12-15T11:58:30.384Z,2.95
2022-12-15T12:01:07.761Z,2.92
2022-12-15T12:03:49.372Z,2.94
2022-12-15T12:06:25.288Z,2.83
2022-12-15T12:09:19.064Z,2.92
2022-12-15T12:11:55.159Z,2.87
2022-12-15T12:14:36.352Z,2.74
2022-12-15T12:17:09.345Z,2.68
2022-12-15T12:19:43.593Z,2.66
2022-12-15T12:22:17.539Z,2.47
2022-12-15T12:24:51.263Z,2.45
2022-12-15T12:27:29.933Z,2.46
2022-12-15T12:30:03.256Z,2.04
2022-12-15T12:32:41.528Z,2.13
2022-12-15T12:35:31.460Z,2.03
2022-12-15T12:41:01.409Z,2.09
2022-12-15T12:43:34.524Z,2.16
2022-12-15T12:46:10.394Z,2.19
2022-12-15T12:48:42.628Z,2.04
2022-12-15T12:51:21.249Z,1.96
2022-12-15T12:53:48.967Z,1.96
2022-12-15T12:56:34.512Z,1.91
2022-12-15T12:59:07.748Z,1.90
2022-12-15T13:01:36.971Z,1.94
2022-12-15T13:04:11.300Z,1.94
2022-12-15T13:07:07.714Z,1.92
2022-12-15T13:09:41.520Z,1.93
2022-12-15T13:12:53.950Z,1.94
2022-12-15T13:15:37.267Z,1.96
2022-12-15T13:18:12.948Z,1.84
2022-12-15T13:20:41.493Z,1.84
2022-12-15T13:23:37.556Z,1.84
2022-12-15T13:26:23.762Z,1.76
2022-12-15T13:28:58.045Z,1.62
2022-12-15T13:31:39.842Z,1.64
2022-12-15T13:34:27.145Z,1.70
2022-12-15T13:37:02.866Z,1.72
2022-12-15T13:39:59.137Z,1.69
2022-12-15T13:42:48.546Z,1.74
2022-12-15T13:45:43.004Z,1.77
2022-12-15T13:48:21.834Z,1.64
2022-12-15T13:50:56.832Z,1.68
2022-12-15T13:53:27.900Z,1.65
2022-12-15T13:56:05.154Z,1.60
2022-12-15T13:58:39.533Z,1.63
2022-12-15T14:01:20.597Z,1.55
2022-12-15T14:04:06.724Z,1.44
2022-12-15T14:06:40.980Z,1.39
2022-12-15T14:09:14.931Z,1.34
2022-12-15T14:11:53.150Z,1.34
2022-12-15T14:14:26.000Z,1.23
2022-12-15T14:16:58.657Z,1.32
2022-12-15T14:19:27.024Z,1.28
2022-12-15T14:21:56.436Z,1.20
2022-12-15T14:24:39.594Z,1.14
2022-12-15T14:27:09.877Z,1.18
2022-12-15T14:29:37.900Z,1.16
2022-12-15T14:32:06.497Z,1.17
2022-12-15T14:34:41.483Z,1.13
2022-12-15T14:37:14.162Z,1.15
2022-12-15T14:39:45.279Z,1.17
2022-12-15T14:42:23.187Z,1.08
2022-12-15T14:44:57.852Z,1.00
2022-12-15T14:47:28.360Z,0.99
2022-12-15T14:49:59.342Z,1.02
2022-12-15T14:52:30.695Z,0.96
2022-12-15T14:55:01.151Z,1.00
2022-12-15T14:57:41.953Z,1.01
2022-12-15T15:00:25.660Z,0.98
2022-12-15T15:03:05.024Z,2.16
2022-12-15T15:03:06.970Z,3.10
2022-12-15T15:05:50.982Z,0.95
2022-12-15T15:08:26.860Z,0.98
2022-12-15T15:10:56.146Z,0.93
2022-12-15T15:13:35.974Z,0.94
2022-12-15T15:16:13.961Z,0.92
2022-12-15T15:18:43.721Z,0.78
2022-12-15T15:21:17.887Z,0.75
2022-12-15T15:23:59.335Z,0.78
2022-12-15T15:26:27.736Z,0.85
2022-12-15T15:28:56.997Z,0.87
2022-12-15T15:31:38.355Z,0.79
2022-12-15T15:34:08.121Z,0.77
2022-12-15T15:36:37.991Z,0.75
2022-12-15T15:39:13.060Z,0.74
2022-12-15T15:41:40.740Z,0.76
2022-12-15T15:44:14.921Z,0.77
2022-12-15T15:46:47.496Z,0.71
2022-12-15T15:49:17.725Z,0.72
2022-12-15T15:51:45.616Z,0.69
2022-12-15T15:54:16.120Z,0.73
2022-12-15T15:56:44.107Z,0.64
2022-12-15T15:59:15.105Z,0.67
2022-12-15T16:01:43.142Z,0.63
2022-12-15T16:04:12.484Z,0.65
2022-12-15T16:06:46.747Z,0.61
2022-12-15T16:09:16.734Z,0.56
2022-12-15T16:11:45.938Z,0.45
2022-12-15T16:14:17.582Z,0.54
2022-12-15T16:16:45.687Z,0.55
2022-12-15T16:19:14.109Z,0.52
2022-12-15T16:21:43.352Z,0.50
2022-12-15T16:24:16.174Z,0.51
2022-12-15T16:26:48.103Z,0.49
2022-12-15T16:29:18.814Z,0.55
2022-12-15T16:31:46.890Z,0.52
2022-12-15T16:34:16.397Z,0.52
2022-12-15T16:36:45.141Z,0.61
2022-12-15T16:39:25.689Z,0.61
2022-12-15T16:41:55.329Z,0.57
2022-12-15T16:44:26.064Z,0.58
2022-12-15T16:46:54.164Z,0.60
2022-12-15T16:49:22.436Z,0.63
2022-12-15T16:51:53.267Z,0.63
2022-12-15T16:54:25.529Z,0.59
2022-12-15T16:56:54.096Z,0.59
2022-12-15T16:59:34.968Z,0.58
2022-12-15T17:02:04.079Z,0.55
2022-12-15T17:04:31.990Z,0.53
2022-12-15T17:06:59.718Z,0.55
2022-12-15T17:09:28.207Z,0.56
2022-12-15T17:11:56.342Z,0.48
2022-12-15T17:14:25.712Z,0.50
2022-12-15T17:16:55.506Z,0.50
2022-12-15T17:19:23.131Z,0.48
2022-12-15T17:21:53.863Z,0.51
2022-12-15T17:24:22.560Z,0.51
2022-12-15T17:26:51.735Z,0.53
2022-12-15T17:29:22.185Z,0.52
2022-12-15T17:31:52.449Z,0.36
2022-12-15T17:34:31.639Z,0.50
2022-12-15T17:37:02.508Z,0.47
2022-12-15T17:39:30.758Z,0.45
2022-12-15T17:42:00.996Z,0.48
2022-12-15T17:44:33.643Z,0.41
2022-12-15T17:47:05.855Z,0.39
2022-12-15T17:49:36.586Z,0.39
2022-12-15T17:52:09.400Z,0.48
2022-12-15T17:54:37.239Z,0.35
2022-12-15T17:57:04.909Z,0.38
2022-12-15T17:59:32.628Z,0.40
2022-12-15T18:02:01.008Z,0.47
2022-12-15T18:04:30.105Z,0.55
2022-12-15T18:07:02.162Z,0.54
2022-12-15T18:09:30.758Z,0.58
2022-12-15T18:11:59.340Z,0.42
2022-12-15T18:14:28.603Z,0.36
2022-12-15T18:17:07.722Z,0.38
2022-12-15T18:19:36.728Z,0.40
2022-12-15T18:22:04.398Z,0.34
2022-12-15T18:24:32.085Z,0.27
2022-12-15T18:27:00.898Z,0.23
2022-12-15T18:29:28.533Z,0.27
2022-12-15T18:31:56.878Z,0.30
2022-12-15T18:34:24.551Z,0.25
2022-12-15T18:36:54.144Z,0.23
2022-12-15T18:39:24.168Z,0.19
2022-12-15T18:41:54.963Z,0.21
2022-12-15T18:44:24.873Z,0.17
2022-12-15T18:46:55.067Z,0.30
2022-12-15T18:49:23.622Z,0.36
2022-12-15T18:51:52.080Z,0.33
2022-12-15T18:54:23.725Z,0.32
2022-12-15T18:56:52.796Z,0.28
2022-12-15T18:59:22.576Z,0.22
2022-12-15T19:01:50.766Z,0.17
2022-12-15T19:04:18.490Z,0.27
2022-12-15T19:06:47.118Z,0.30
2022-12-15T19:09:18.427Z,0.19
2022-12-15T19:12:17.832Z,0.26
2022-12-15T19:14:47.069Z,0.29
2022-12-15T19:17:35.118Z,0.31
2022-12-15T19:20:21.497Z,0.24
2022-12-15T19:22:50.284Z,0.23
2022-12-15T19:25:25.547Z,0.20
2022-12-15T19:27:59.418Z,0.27
2022-12-15T19:30:28.914Z,0.22
2022-12-15T19:32:57.380Z,0.24
2022-12-15T19:35:25.224Z,0.19
2022-12-15T19:37:55.382Z,0.22
2022-12-15T19:40:27.330Z,0.26
2022-12-15T19:42:57.051Z,0.21
2022-12-15T19:45:27.061Z,0.20
2022-12-15T19:47:55.435Z,0.25
2022-12-15T19:50:25.964Z,0.17
2022-12-15T19:52:57.864Z,0.20
2022-12-15T19:55:28.621Z,0.28
2022-12-15T19:57:57.966Z,0.22
2022-12-15T20:00:27.295Z,0.33
2022-12-15T20:02:57.019Z,0.32
2022-12-15T20:05:26.053Z,0.36
2022-12-15T20:07:55.036Z,0.30
2022-12-15T20:10:31.408Z,0.35
2022-12-15T20:13:03.545Z,0.39
2022-12-15T20:15:31.199Z,0.39
2022-12-15T20:17:58.822Z,0.45
2022-12-15T20:20:28.842Z,0.42
2022-12-15T20:23:00.283Z,0.52
2022-12-15T20:25:30.480Z,0.50
2022-12-15T20:28:00.513Z,0.55
2022-12-15T20:30:32.688Z,0.52
2022-12-15T20:33:00.954Z,0.57
2022-12-15T20:35:31.048Z,0.48
2022-12-15T20:37:59.122Z,0.53
2022-12-15T20:40:28.698Z,0.56
2022-12-15T20:42:58.033Z,0.55
2022-12-15T20:45:27.807Z,0.58
2022-12-15T20:47:57.472Z,0.44
2022-12-15T20:50:28.856Z,0.63
2022-12-15T20:52:56.887Z,0.67
2022-12-15T20:55:24.672Z,0.65
2022-12-15T20:57:52.626Z,0.63
2022-12-15T21:00:21.789Z,0.63
2022-12-15T21:02:51.971Z,0.65
2022-12-15T21:05:25.490Z,0.62
2022-12-15T21:07:54.019Z,0.71
2022-12-15T21:10:22.062Z,0.80
2022-12-15T21:12:50.771Z,0.86
2022-12-15T21:15:21.722Z,0.78
2022-12-15T21:18:03.845Z,0.91
2022-12-15T21:20:41.197Z,0.80
2022-12-15T21:23:19.920Z,0.88
2022-12-15T21:25:48.229Z,0.93
2022-12-15T21:28:16.891Z,0.91
2022-12-15T21:30:45.041Z,0.87
2022-12-15T21:33:13.289Z,0.90
2022-12-15T21:35:46.020Z,0.98
2022-12-15T21:38:28.384Z,0.95
2022-12-15T21:40:59.809Z,1.01
2022-12-15T21:43:30.403Z,1.04
2022-12-15T21:45:58.956Z,1.08
2022-12-15T21:48:44.709Z,1.12
2022-12-15T21:51:16.430Z,1.21
2022-12-15T21:53:46.691Z,1.26
2022-12-15T21:56:16.397Z,1.26
2022-12-15T21:58:45.106Z,1.33
2022-12-15T22:01:15.424Z,1.40
2022-12-15T22:03:45.865Z,1.36
2022-12-15T22:06:20.084Z,1.36
2022-12-15T22:08:49.121Z,1.37
2022-12-15T22:11:22.105Z,1.36
2022-12-15T22:13:51.608Z,1.40
2022-12-15T22:16:20.310Z,1.45
2022-12-15T22:18:50.911Z,1.51
2022-12-15T22:21:21.222Z,1.52
2022-12-15T22:23:48.970Z,1.46
2022-12-15T22:26:22.139Z,1.51
2022-12-15T22:28:50.489Z,1.54
2022-12-15T22:31:18.981Z,1.54
2022-12-15T22:33:46.813Z,1.56
2022-12-15T22:36:15.141Z,1.51
2022-12-15T22:38:45.033Z,1.55
2022-12-15T22:41:19.276Z,1.58
2022-12-15T22:43:51.167Z,1.59
2022-12-15T22:46:22.212Z,1.64
2022-12-15T22:48:51.503Z,1.61
2022-12-15T22:51:20.561Z,1.61
2022-12-15T22:53:49.570Z,1.62
2022-12-15T22:56:26.671Z,1.69
2022-12-15T22:58:57.199Z,1.66
2022-12-15T23:01:27.116Z,1.67
2022-12-15T23:03:55.558Z,1.69
2022-12-15T23:06:24.103Z,1.65
2022-12-15T23:08:55.977Z,1.73
2022-12-15T23:11:39.680Z,1.68
2022-12-15T23:14:09.407Z,1.68
2022-12-15T23:16:37.152Z,1.69
2022-12-15T23:19:07.688Z,1.70
2022-12-15T23:21:37.067Z,1.73
2022-12-15T23:24:06.588Z,1.74
2022-12-15T23:26:34.560Z,1.74
2022-12-15T23:29:02.306Z,1.75
2022-12-15T23:31:30.550Z,1.79
2022-12-15T23:33:58.295Z,1.84
2022-12-15T23:36:26.030Z,1.85
2022-12-15T23:38:55.089Z,1.84
2022-12-15T23:41:24.633Z,1.83
2022-12-15T23:43:52.264Z,1.81
2022-12-15T23:46:20.063Z,1.76
2022-12-15T23:48:48.015Z,1.78
2022-12-15T23:51:17.875Z,1.79
2022-12-15T23:53:47.626Z,1.81
2022-12-15T23:56:18.236Z,1.83
2022-12-15T23:58:49.003Z,1.83
